Time;durP1;ratioP1;P1;durP2;ratioP2;P2;SDS_P1;SDS_P2;PMS_P1;PMS_P2;Temp;Humidity;BMP_temperature;BMP_pressure;BME280_temperature;BME280_humidity;BME280_pressure;Samples;Min_cycle;Max_cycle;Signal;HPM_P1;HPM_P2
2021/07/21 00:02:18;;;;;;;;;17.00;16.50;;;;;26.94;43.51;101453.38;5055264;28;47621;-63
2021/07/21 00:04:44;;;;;;;;;22.00;18.00;;;;;26.92;42.95;101447.16;5060948;28;45790;-63
2021/07/21 00:07:14;;;;;;;;;17.50;15.25;;;;;26.88;43.53;101443.81;5081089;27;45372;-63
2021/07/21 00:09:40;;;;;;;;;16.50;16.50;;;;;26.86;43.43;101447.66;5076148;27;45361;-63
2021/07/21 00:14:51;;;;;;;;;17.75;16.00;;;;;26.79;43.26;101443.66;5080686;27;45392;-63
2021/07/21 00:17:22;;;;;;;;;16.00;16.00;;;;;26.78;43.60;101440.06;5080675;27;45447;-63
2021/07/21 00:22:38;;;;;;;;;18.50;17.25;;;;;26.74;43.77;101437.72;5080278;27;47295;-63
2021/07/21 00:25:07;;;;;;;;;18.00;15.00;;;;;26.72;43.42;101435.13;5078781;27;45893;-63
2021/07/21 00:27:33;;;;;;;;;20.25;19.75;;;;;26.71;43.61;101435.25;5080552;27;45337;-63
2021/07/21 00:29:58;;;;;;;;;18.50;16.75;;;;;26.71;44.11;101440.69;5062362;28;45513;-63
2021/07/21 00:32:24;;;;;;;;;17.75;17.00;;;;;26.70;43.84;101439.81;5078477;27;48625;-63
2021/07/21 00:34:49;;;;;;;;;18.75;17.00;;;;;26.69;43.96;101438.94;5080104;27;45470;-63
2021/07/21 00:37:15;;;;;;;;;16.50;15.25;;;;;26.69;43.77;101447.13;5061925;28;45425;-64
2021/07/21 00:39:41;;;;;;;;;16.50;15.00;;;;;26.68;43.94;101447.25;5062364;28;45604;-63
2021/07/21 00:42:07;;;;;;;;;16.50;16.00;;;;;26.68;43.56;101453.56;5078257;27;47333;-63
2021/07/21 00:44:32;;;;;;;;;18.00;16.00;;;;;26.68;43.60;101449.97;5079841;27;45487;-63
2021/07/21 00:46:58;;;;;;;;;14.00;14.00;;;;;26.68;43.79;101453.56;5061501;28;45651;-64
2021/07/21 00:49:25;;;;;;;;;17.25;16.75;;;;;26.67;43.70;101440.91;5062083;27;45399;-63
2021/07/21 00:51:54;;;;;;;;;17.00;15.75;;;;;26.67;43.88;101446.34;5079618;27;46224;-63
2021/07/21 00:54:20;;;;;;;;;19.00;17.00;;;;;26.67;44.00;101445.47;5076547;27;45613;-63
2021/07/21 00:56:47;;;;;;;;;19.25;17.00;;;;;26.67;43.56;101443.63;5061656;28;45420;-63
2021/07/21 00:59:14;;;;;;;;;15.50;15.50;;;;;26.67;43.44;101449.06;5061724;28;45359;-64
2021/07/21 01:01:39;;;;;;;;;16.50;14.25;;;;;26.67;44.09;101453.66;5073605;27;46309;-64
2021/07/21 01:04:05;;;;;;;;;18.50;16.00;;;;;26.64;43.47;101453.88;5079852;27;45538;-63
2021/07/21 01:06:31;;;;;;;;;17.50;16.25;;;;;26.63;43.89;101452.16;5079522;27;45582;-63
2021/07/21 01:08:58;;;;;;;;;20.75;17.00;;;;;26.60;43.92;101444.22;5044614;28;45424;-65
2021/07/21 01:11:27;;;;;;;;;16.50;14.75;;;;;26.59;43.41;101456.13;5079506;27;48048;-63
2021/07/21 01:14:01;;;;;;;;;22.50;21.25;;;;;26.58;44.19;101454.38;5079563;27;46121;-64
2021/07/21 01:16:33;;;;;;;;;20.50;18.75;;;;;26.57;44.00;101448.06;5072920;27;45827;-63
2021/07/21 01:19:46;;;;;;;;;18.75;18.00;;;;;26.56;44.18;101445.47;5079318;27;45334;-64
2021/07/21 01:22:19;;;;;;;;;21.75;20.75;;;;;26.54;44.15;101448.28;5047960;28;48308;-63
2021/07/21 01:25:06;;;;;;;;;18.50;18.50;;;;;26.54;43.92;101444.69;5079209;27;45497;-63
2021/07/21 01:27:50;;;;;;;;;21.25;20.25;;;;;26.52;44.26;101447.53;5075498;27;45432;-64
2021/07/21 01:30:17;;;;;;;;;21.75;19.00;;;;;26.52;44.56;101452.13;5083494;27;45659;-63
2021/07/21 01:32:50;;;;;;;;;18.25;17.75;;;;;26.51;44.03;101453.97;5077785;27;47289;-65
2021/07/21 01:35:27;;;;;;;;;22.00;22.00;;;;;26.51;44.50;101445.81;5068951;27;45395;-64
2021/07/21 01:37:59;;;;;;;;;20.00;19.00;;;;;26.51;44.07;101439.50;5075851;27;45374;-63
2021/07/21 01:40:46;;;;;;;;;24.00;23.25;;;;;26.48;44.51;101446.03;5061389;27;45600;-63
2021/07/21 01:43:16;;;;;;;;;24.75;22.00;;;;;26.41;44.27;101444.78;5056237;28;47963;-63
2021/07/21 01:45:45;;;;;;;;;20.50;18.25;;;;;26.39;44.01;101452.19;5071522;27;45601;-64
2021/07/21 01:48:14;;;;;;;;;20.00;20.00;;;;;26.37;44.83;101446.00;5070385;27;45510;-63
2021/07/21 01:50:41;;;;;;;;;21.75;21.75;;;;;26.36;44.76;101456.03;5071279;28;45491;-63
2021/07/21 01:53:08;;;;;;;;;20.00;19.00;;;;;26.35;44.64;101451.53;5067467;28;47229;-64
2021/07/21 01:55:37;;;;;;;;;19.25;19.25;;;;;26.36;44.38;101460.59;5077620;28;45425;-64
2021/07/21 01:58:04;;;;;;;;;22.00;19.25;;;;;26.37;44.46;101459.59;5061104;28;45277;-63
2021/07/21 02:00:29;;;;;;;;;21.00;20.50;;;;;26.35;44.43;101462.41;5077579;28;45323;-63
2021/07/21 02:02:56;;;;;;;;;20.00;20.00;;;;;26.35;44.71;101467.84;5066447;28;48163;-63
2021/07/21 02:05:24;;;;;;;;;21.00;20.00;;;;;26.33;44.52;101461.66;5053852;28;46001;-63
2021/07/21 02:07:52;;;;;;;;;22.00;22.00;;;;;26.31;44.47;101460.94;5049592;28;45457;-63
2021/07/21 02:10:20;;;;;;;;;19.25;18.75;;;;;26.29;44.95;101462.88;5058893;28;45625;-63
2021/07/21 02:12:50;;;;;;;;;18.75;18.75;;;;;26.29;44.95;101468.31;5058157;28;47196;-63
2021/07/21 02:15:18;;;;;;;;;21.75;21.00;;;;;26.26;45.05;101474.00;5040449;28;45482;-63
2021/07/21 02:17:44;;;;;;;;;20.50;18.75;;;;;26.27;44.42;101475.72;5058260;28;45452;-64
2021/07/21 02:20:11;;;;;;;;;18.75;17.75;;;;;26.27;44.93;101466.69;5040541;28;45385;-63
2021/07/21 02:22:40;;;;;;;;;21.00;19.50;;;;;26.26;44.65;101459.53;5057830;28;48333;-64
2021/07/21 02:25:07;;;;;;;;;17.00;16.50;;;;;26.25;44.98;101460.50;5071227;28;45556;-62
2021/07/21 02:27:32;;;;;;;;;20.75;19.25;;;;;26.23;44.80;101460.63;5074462;28;45481;-62
2021/07/21 02:29:58;;;;;;;;;16.75;16.75;;;;;26.20;45.42;101468.16;5059209;28;45409;-64
2021/07/21 02:32:31;;;;;;;;;17.25;17.25;;;;;26.15;44.89;101463.03;5062547;27;46856;-62
2021/07/21 02:35:00;;;;;;;;;18.00;16.75;;;;;26.13;44.92;101461.44;5060698;28;45462;-62
2021/07/21 02:37:26;;;;;;;;;20.25;16.50;;;;;26.11;45.41;101462.41;5076151;27;45365;-62
2021/07/21 02:39:52;;;;;;;;;19.00;17.00;;;;;26.09;45.00;101458.06;5075782;27;45862;-62
2021/07/21 02:42:19;;;;;;;;;19.75;18.00;;;;;26.08;45.68;101465.38;5072623;28;47340;-62
2021/07/21 02:44:48;;;;;;;;;18.25;18.00;;;;;26.09;45.12;101460.81;5077557;28;45528;-63
2021/07/21 02:47:15;;;;;;;;;19.25;19.25;;;;;26.07;45.41;101460.06;5055983;28;45465;-62
2021/07/21 02:49:44;;;;;;;;;22.50;20.50;;;;;26.05;45.51;101460.16;5078246;27;45447;-62
2021/07/21 02:52:15;;;;;;;;;21.25;20.25;;;;;26.05;45.33;101462.03;5077894;27;47444;-62
2021/07/21 02:55:00;;;;;;;;;21.00;20.00;;;;;26.05;45.33;101470.19;5078138;27;45524;-64
2021/07/21 02:57:38;;;;;;;;;20.25;19.25;;;;;26.04;45.70;101462.97;5077798;27;45594;-62
2021/07/21 03:00:09;;;;;;;;;20.50;17.25;;;;;26.00;45.89;101466.91;5074492;27;45854;-63
2021/07/21 03:02:36;;;;;;;;;19.50;18.50;;;;;26.00;45.84;101461.47;5069580;27;47315;-63
2021/07/21 03:05:03;;;;;;;;;19.75;19.50;;;;;25.98;46.06;101469.75;5077778;27;45478;-63
2021/07/21 03:07:30;;;;;;;;;18.00;16.50;;;;;25.98;45.78;101474.31;5054670;28;45416;-63
2021/07/21 03:09:57;;;;;;;;;17.75;17.00;;;;;25.97;45.50;101473.47;5078182;27;45389;-63
2021/07/21 03:12:27;;;;;;;;;23.25;19.00;;;;;25.96;45.27;101471.72;5061108;28;46789;-62
2021/07/21 03:14:54;;;;;;;;;17.00;16.50;;;;;25.96;45.67;101476.31;5074759;27;46439;-62
2021/07/21 03:17:22;;;;;;;;;18.00;17.00;;;;;25.93;45.44;101479.25;5078160;28;45631;-62
2021/07/21 03:19:52;;;;;;;;;23.25;20.50;;;;;25.90;46.07;101482.19;5065853;28;45524;-62
2021/07/21 03:22:22;;;;;;;;;22.25;20.00;;;;;25.89;45.84;101484.03;5077364;27;48118;-63
2021/07/21 03:24:48;;;;;;;;;19.50;18.00;;;;;25.87;45.69;101494.16;5082089;27;45505;-63
2021/07/21 03:27:15;;;;;;;;;20.00;18.25;;;;;25.85;45.96;101482.53;5057048;28;45385;-63
2021/07/21 03:29:42;;;;;;;;;19.00;19.00;;;;;25.85;46.13;101487.97;5071253;28;45526;-63
2021/07/21 03:32:07;;;;;;;;;19.00;19.00;;;;;25.84;45.88;101488.94;5070355;27;45445;-63
2021/07/21 03:34:36;;;;;;;;;20.25;19.25;;;;;25.83;46.32;101489.06;5077998;27;45293;-63
2021/07/21 03:37:03;;;;;;;;;21.00;20.00;;;;;25.80;45.93;101487.44;5077674;27;45301;-63
2021/07/21 03:39:29;;;;;;;;;21.00;20.75;;;;;25.78;46.39;101487.53;5072758;27;45449;-63
2021/07/21 03:41:56;;;;;;;;;23.00;21.50;;;;;25.77;45.88;101485.78;5077724;28;47756;-63
2021/07/21 03:44:24;;;;;;;;;17.25;17.25;;;;;25.76;46.14;101486.78;5077551;27;45447;-63
2021/07/21 03:46:52;;;;;;;;;19.75;19.00;;;;;25.75;45.73;101485.03;5052279;28;45377;-63
2021/07/21 03:49:19;;;;;;;;;20.25;19.00;;;;;25.74;46.24;101482.44;5069541;28;45492;-63
2021/07/21 03:51:45;;;;;;;;;19.50;19.25;;;;;25.73;46.08;101480.72;5068882;28;47372;-63
2021/07/21 03:54:14;;;;;;;;;22.75;22.50;;;;;25.67;46.55;101482.00;5060685;28;45361;-63
2021/07/21 03:56:42;;;;;;;;;19.75;18.50;;;;;25.63;46.60;101477.75;5070906;28;45301;-62
2021/07/21 03:59:11;;;;;;;;;21.75;19.50;;;;;25.61;46.15;101478.84;5059862;28;45564;-63
2021/07/21 04:01:38;;;;;;;;;17.00;17.00;;;;;25.60;46.22;101482.56;5060390;28;47217;-63
2021/07/21 04:04:05;;;;;;;;;19.25;16.50;;;;;25.59;46.43;101487.13;5042845;28;45572;-63
2021/07/21 04:06:35;;;;;;;;;24.25;20.25;;;;;25.59;46.75;101491.69;5063976;28;45472;-63
2021/07/21 04:09:05;;;;;;;;;17.50;17.00;;;;;25.59;46.36;101488.97;5060865;28;45505;-62
2021/07/21 04:11:33;;;;;;;;;20.75;19.50;;;;;25.59;46.61;101494.41;5042408;28;47309;-62
2021/07/21 04:13:59;;;;;;;;;26.25;24.00;;;;;25.59;46.41;101488.97;5042685;28;45825;-63
2021/07/21 04:16:25;;;;;;;;;21.25;20.00;;;;;25.59;46.42;101486.25;5042388;28;45442;-63
2021/07/21 04:18:51;;;;;;;;;19.25;19.00;;;;;25.58;46.84;101488.09;5060517;28;45398;-63
2021/07/21 04:21:17;;;;;;;;;23.50;20.25;;;;;25.58;46.55;101495.38;5060234;28;48027;-63
2021/07/21 04:23:43;;;;;;;;;22.50;21.50;;;;;25.57;46.56;101491.81;5071285;28;45314;-63
2021/07/21 04:26:12;;;;;;;;;20.50;20.50;;;;;25.56;46.50;101492.78;5058716;28;45347;-63
2021/07/21 04:28:39;;;;;;;;;20.75;19.00;;;;;25.56;46.96;101502.78;5079884;28;45491;-63
2021/07/21 04:31:06;;;;;;;;;20.75;18.50;;;;;25.52;46.96;101496.69;5080106;27;47075;-63
2021/07/21 04:33:33;;;;;;;;;25.25;21.00;;;;;25.50;46.86;101496.78;5069679;27;45589;-63
2021/07/21 04:36:00;;;;;;;;;17.75;16.75;;;;;25.50;46.49;101498.66;5076797;27;45722;-63
2021/07/21 04:38:25;;;;;;;;;22.25;21.75;;;;;25.47;46.91;101502.47;5044997;28;45629;-63
2021/07/21 04:40:53;;;;;;;;;23.50;20.50;;;;;25.45;46.55;101504.44;5074006;27;45678;-63
2021/07/21 04:43:19;;;;;;;;;26.00;21.25;;;;;25.42;46.91;101511.94;5075568;27;45510;-63
2021/07/21 04:45:47;;;;;;;;;24.75;21.75;;;;;25.40;47.21;101516.59;5071198;27;45386;-63
2021/07/21 04:48:14;;;;;;;;;21.75;18.75;;;;;25.40;47.37;101511.16;5075747;27;45504;-63
2021/07/21 04:50:42;;;;;;;;;23.50;22.00;;;;;25.41;47.20;101507.44;5069493;27;47283;-63
2021/07/21 04:53:10;;;;;;;;;21.75;20.50;;;;;25.41;47.38;101513.78;5057636;28;45610;-63
2021/07/21 04:55:36;;;;;;;;;27.25;24.00;;;;;25.42;47.20;101520.97;5057367;28;45819;-63
2021/07/21 04:58:02;;;;;;;;;22.75;22.25;;;;;25.41;46.95;101521.94;5071912;28;45371;-63
2021/07/21 05:00:27;;;;;;;;;22.50;20.75;;;;;25.42;47.34;101523.69;5056845;27;47667;-63
2021/07/21 05:02:53;;;;;;;;;21.50;20.50;;;;;25.42;46.84;101528.25;5054254;28;45419;-63
2021/07/21 05:05:19;;;;;;;;;24.00;21.75;;;;;25.42;47.41;101523.69;5055701;28;45547;-63
2021/07/21 05:07:44;;;;;;;;;18.25;17.50;;;;;25.43;47.39;101533.56;5068270;27;46366;-63
2021/07/21 05:10:11;;;;;;;;;32.00;24.50;;;;;25.46;47.35;101533.34;5071351;27;47708;-63
2021/07/21 05:12:37;;;;;;;;;22.25;21.25;;;;;25.47;46.97;101529.63;5061528;28;45831;-63
2021/07/21 05:15:13;;;;;;;;;25.00;23.25;;;;;25.48;46.80;101531.38;5053852;28;45807;-65
2021/07/21 05:17:39;;;;;;;;;22.75;21.75;;;;;25.47;47.19;101531.50;5057417;27;45422;-62
2021/07/21 05:20:06;;;;;;;;;24.00;21.50;;;;;25.47;47.16;101535.06;5070885;27;46977;-62
2021/07/21 05:22:31;;;;;;;;;23.50;22.25;;;;;25.48;47.22;101541.38;5078417;27;45767;-63
2021/07/21 05:24:57;;;;;;;;;22.50;22.50;;;;;25.50;46.83;101542.13;5070972;27;45357;-61
2021/07/21 05:27:22;;;;;;;;;18.75;18.25;;;;;25.50;46.88;101540.28;5071761;27;45480;-61
2021/07/21 05:29:48;;;;;;;;;23.25;23.00;;;;;25.52;47.30;101554.63;5067133;27;45709;-61
2021/07/21 05:32:13;;;;;;;;;24.25;23.25;;;;;25.53;47.16;101552.78;5063788;28;45240;-61
2021/07/21 05:34:39;;;;;;;;;23.00;19.50;;;;;25.53;47.25;101553.66;5043084;28;45668;-62
2021/07/21 05:37:05;;;;;;;;;23.25;21.50;;;;;25.55;47.29;101555.41;5073205;28;45400;-60
2021/07/21 05:39:30;;;;;;;;;21.25;20.75;;;;;25.56;46.95;101560.75;5070825;28;47259;-61
2021/07/21 05:41:56;;;;;;;;;21.75;21.75;;;;;25.58;46.95;101560.63;5058141;28;45915;-61
2021/07/21 05:44:24;;;;;;;;;28.25;27.50;;;;;25.59;47.48;101567.78;5065732;28;45322;-61
2021/07/21 05:46:50;;;;;;;;;22.00;20.50;;;;;25.58;46.88;101563.34;5073865;28;45488;-61
2021/07/21 05:49:16;;;;;;;;;21.75;21.50;;;;;25.57;47.10;101569.75;5072774;28;45602;-61
2021/07/21 05:51:41;;;;;;;;;23.25;22.50;;;;;25.51;47.00;101562.91;5063143;28;45373;-61
2021/07/21 05:54:07;;;;;;;;;25.75;24.00;;;;;25.50;47.36;101564.75;5072940;28;45333;-61
2021/07/21 05:56:33;;;;;;;;;25.00;22.75;;;;;25.48;47.15;101560.41;5059563;28;45410;-61
2021/07/21 05:58:59;;;;;;;;;28.25;25.50;;;;;25.48;47.41;101565.84;5067451;28;45880;-60
2021/07/21 06:01:25;;;;;;;;;24.75;23.75;;;;;25.44;47.48;101567.03;5067829;28;45624;-60
2021/07/21 06:03:51;;;;;;;;;20.75;19.75;;;;;25.42;47.56;101567.16;5072519;27;45390;-61
2021/07/21 06:06:16;;;;;;;;;22.75;22.75;;;;;25.44;47.85;101575.19;5062693;27;45406;-61
2021/07/21 06:08:42;;;;;;;;;26.25;25.00;;;;;25.45;47.75;101577.78;5077076;28;47779;-61
2021/07/21 06:11:09;;;;;;;;;25.50;23.50;;;;;25.46;47.90;101575.94;5072282;28;45647;-61
2021/07/21 06:13:35;;;;;;;;;20.50;20.50;;;;;25.47;47.45;101586.72;5060445;28;45488;-62
2021/07/21 06:16:06;;;;;;;;;25.25;22.50;;;;;25.49;47.46;101587.47;5052600;28;45730;-62
2021/07/21 06:18:33;;;;;;;;;25.25;23.75;;;;;25.52;47.86;101581.81;5049258;28;48622;-62
2021/07/21 06:20:59;;;;;;;;;25.25;24.50;;;;;25.58;47.55;101590.53;5066751;28;45487;-62
2021/07/21 06:23:25;;;;;;;;;28.25;27.00;;;;;25.61;47.46;101585.72;5065511;28;45503;-62
2021/07/21 06:25:50;;;;;;;;;27.75;27.25;;;;;25.62;47.51;101592.03;5060119;28;45453;-62
2021/07/21 06:28:16;;;;;;;;;25.00;24.00;;;;;25.63;47.50;101591.91;5067455;28;47970;-62
2021/07/21 06:30:42;;;;;;;;;27.50;27.00;;;;;25.63;47.49;101597.34;5059924;28;47007;-62
2021/07/21 06:33:09;;;;;;;;;23.50;23.50;;;;;25.62;47.73;101598.34;5068752;28;45601;-62
2021/07/21 06:35:35;;;;;;;;;27.50;27.50;;;;;25.65;47.78;101600.84;5065960;27;45214;-62
2021/07/21 06:38:01;;;;;;;;;25.50;24.25;;;;;25.68;47.66;101607.94;5054999;28;47077;-62
2021/07/21 06:40:27;;;;;;;;;24.25;23.00;;;;;25.71;47.78;101605.03;5051371;28;45704;-62
2021/07/21 06:42:53;;;;;;;;;23.50;23.50;;;;;25.74;47.46;101610.22;5065529;28;45581;-62
2021/07/21 06:45:19;;;;;;;;;27.25;25.75;;;;;25.75;47.33;101615.56;5043941;28;45429;-69
2021/07/21 06:47:44;;;;;;;;;29.00;25.00;;;;;25.77;47.56;101612.72;5049857;28;46859;-69
2021/07/21 06:50:10;;;;;;;;;28.50;28.00;;;;;25.79;47.39;101608.03;5056136;28;45362;-70
2021/07/21 06:52:36;;;;;;;;;30.00;28.25;;;;;25.81;47.71;101608.81;5059859;28;45339;-67
2021/07/21 06:55:03;;;;;;;;;26.50;26.50;;;;;25.84;47.44;101616.75;5063917;28;44857;-68
2021/07/21 06:57:30;;;;;;;;;32.25;31.00;;;;;25.86;47.21;101616.63;5050093;28;47018;-69
2021/07/21 06:59:56;;;;;;;;;27.75;24.50;;;;;25.86;47.27;101620.22;5062204;28;45291;-69
2021/07/21 07:02:22;;;;;;;;;33.75;24.00;;;;;25.85;46.92;101629.38;5064804;28;45362;-69
2021/07/21 07:04:47;;;;;;;;;29.25;28.25;;;;;25.86;47.40;101625.66;5074780;27;45559;-57
2021/07/21 07:07:17;;;;;;;;;28.75;26.00;;;;;25.85;46.85;101621.22;5053658;28;47163;-57
2021/07/21 07:09:43;;;;;;;;;32.75;28.25;;;;;25.86;47.00;101624.81;5075295;28;45874;-57
2021/07/21 07:12:09;;;;;;;;;31.25;29.25;;;;;25.85;46.46;101623.94;5046971;28;45388;-58
2021/07/21 07:14:35;;;;;;;;;33.00;30.50;;;;;25.86;46.38;101630.25;5059367;28;45369;-58
2021/07/21 07:17:01;;;;;;;;;29.75;27.50;;;;;25.86;46.94;101622.09;5078230;28;46963;-59
2021/07/21 07:19:26;;;;;;;;;29.25;26.75;;;;;25.86;46.62;101627.53;5078180;28;45768;-58
2021/07/21 07:21:52;;;;;;;;;27.25;26.25;;;;;25.85;46.61;101618.50;5076776;28;45352;-59
2021/07/21 07:24:18;;;;;;;;;30.50;28.00;;;;;25.86;46.51;101620.22;5077590;28;45872;-59
2021/07/21 07:26:43;;;;;;;;;33.00;29.75;;;;;25.87;46.77;101621.97;5061483;28;46137;-58
2021/07/21 07:29:09;;;;;;;;;27.50;27.50;;;;;25.87;46.21;101627.41;5058398;28;45386;-58
2021/07/21 07:31:34;;;;;;;;;28.75;28.50;;;;;25.88;46.33;101623.72;5071935;27;45750;-58
2021/07/21 07:34:00;;;;;;;;;28.50;26.50;;;;;25.90;46.46;101624.47;5082064;27;45631;-58
2021/07/21 07:36:25;;;;;;;;;25.50;24.75;;;;;25.92;46.04;101625.25;5082265;27;47219;-58
2021/07/21 07:38:51;;;;;;;;;24.75;23.50;;;;;25.95;46.06;101624.16;5060541;27;45903;-58
2021/07/21 07:41:17;;;;;;;;;31.50;30.50;;;;;25.96;45.46;101623.16;5081468;27;45456;-58
2021/07/21 07:43:42;;;;;;;;;26.00;24.75;;;;;25.97;45.56;101623.06;5082006;27;45390;-58
2021/07/21 07:46:09;;;;;;;;;29.50;27.50;;;;;26.00;45.71;101625.53;5077877;27;47384;-58
2021/07/21 07:48:35;;;;;;;;;34.00;30.50;;;;;26.02;45.97;101623.59;5061692;27;45330;-58
2021/07/21 07:51:00;;;;;;;;;28.00;25.75;;;;;26.02;45.80;101623.59;5063021;28;45347;-58
2021/07/21 07:53:26;;;;;;;;;26.00;22.75;;;;;26.04;45.52;101621.66;5063714;27;45648;-58
2021/07/21 07:55:52;;;;;;;;;24.50;22.00;;;;;26.06;45.46;101622.41;5060014;28;47752;-58
2021/07/21 07:58:17;;;;;;;;;25.50;25.50;;;;;26.08;45.35;101612.28;5076005;27;45904;-58
2021/07/21 08:00:43;;;;;;;;;30.75;25.75;;;;;26.11;45.55;101612.03;5077581;27;45339;-57
2021/07/21 08:03:09;;;;;;;;;34.75;29.00;;;;;26.15;45.39;101614.53;5076489;27;45361;-57
2021/07/21 08:05:37;;;;;;;;;28.25;26.50;;;;;26.16;45.37;101619.84;5062803;28;47580;-57
2021/07/21 08:08:02;;;;;;;;;31.25;28.75;;;;;26.18;45.22;101617.06;5083132;27;45314;-59
2021/07/21 08:10:29;;;;;;;;;33.25;29.00;;;;;26.20;45.48;101624.13;5081092;27;45437;-59
2021/07/21 08:12:54;;;;;;;;;31.25;29.50;;;;;26.25;45.08;101621.91;5063079;27;45636;-59
2021/07/21 08:15:20;;;;;;;;;25.75;25.00;;;;;26.28;44.99;101613.50;5081070;27;45333;-58
2021/07/21 08:17:46;;;;;;;;;30.00;24.75;;;;;26.31;44.84;101617.88;5081236;27;45301;-59
2021/07/21 08:20:12;;;;;;;;;30.75;24.50;;;;;26.33;44.60;101615.91;5081084;27;45305;-59
2021/07/21 08:22:40;;;;;;;;;25.25;23.00;;;;;26.35;45.03;101617.53;5081059;27;45609;-57
2021/07/21 08:25:15;;;;;;;;;26.50;25.50;;;;;26.38;45.07;101613.75;5080948;27;47786;-55
2021/07/21 08:27:41;;;;;;;;;27.50;27.25;;;;;26.43;45.25;101621.59;5062934;27;45405;-57
2021/07/21 08:30:12;;;;;;;;;26.00;24.50;;;;;26.47;44.79;101625.81;5080253;27;45479;-58
2021/07/21 08:32:49;;;;;;;;;27.00;26.25;;;;;26.48;44.87;101622.13;5078104;27;45402;-58
2021/07/21 08:35:17;;;;;;;;;25.50;24.50;;;;;26.49;44.49;101613.81;5059272;28;45496;-58
2021/07/21 08:37:42;;;;;;;;;23.25;23.00;;;;;26.51;43.93;101625.47;5074862;27;45915;-58
2021/07/21 08:40:10;;;;;;;;;24.00;23.00;;;;;26.54;43.84;101618.91;5073054;27;45460;-58
2021/07/21 08:42:36;;;;;;;;;25.75;24.00;;;;;26.56;43.59;101627.88;5081123;27;45613;-57
2021/07/21 08:45:04;;;;;;;;;22.25;21.75;;;;;26.57;43.73;101625.03;5076945;27;47652;-58
2021/07/21 08:47:30;;;;;;;;;24.00;22.50;;;;;26.56;43.99;101628.75;5079170;27;45566;-58
2021/07/21 08:49:56;;;;;;;;;23.75;23.25;;;;;26.57;43.39;101622.31;5080898;27;45413;-58
2021/07/21 08:52:22;;;;;;;;;25.75;21.75;;;;;26.58;43.16;101617.72;5080302;27;45642;-58
2021/07/21 08:54:51;;;;;;;;;23.75;21.75;;;;;26.60;43.57;101613.03;5080208;27;48484;-58
2021/07/21 08:57:17;;;;;;;;;25.00;24.00;;;;;26.61;43.17;101615.63;5079971;27;45464;-58
2021/07/21 08:59:45;;;;;;;;;24.25;23.25;;;;;26.64;43.20;101615.41;5062588;28;45687;-58
2021/07/21 09:02:14;;;;;;;;;24.25;21.75;;;;;26.67;43.25;101612.44;5060964;28;45433;-58
2021/07/21 09:04:40;;;;;;;;;25.75;21.00;;;;;26.71;43.16;101617.69;5061447;27;47488;-57
2021/07/21 09:07:07;;;;;;;;;25.25;22.75;;;;;26.72;42.82;101619.41;5080100;27;45632;-58
2021/07/21 09:09:34;;;;;;;;;28.50;23.25;;;;;26.74;43.61;101628.31;5080499;27;45377;-58
2021/07/21 09:12:00;;;;;;;;;19.50;19.00;;;;;26.77;42.61;101622.66;5062369;28;45707;-58
2021/07/21 09:14:27;;;;;;;;;21.50;19.25;;;;;26.79;42.83;101626.97;5080804;27;48264;-58
2021/07/21 09:17:12;;;;;;;;;19.25;18.00;;;;;26.82;42.85;101612.28;5080356;27;45291;-58
2021/07/21 09:19:42;;;;;;;;;22.25;19.50;;;;;26.84;42.86;101615.75;5080017;27;45444;-58
2021/07/21 09:22:39;;;;;;;;;21.50;19.25;;;;;26.86;43.00;101621.97;5080984;27;45239;-56
2021/07/21 09:25:11;;;;;;;;;21.00;20.75;;;;;26.90;42.49;101623.44;5074919;27;46745;-58
2021/07/21 09:27:38;;;;;;;;;20.75;20.25;;;;;26.94;42.14;101619.53;5076363;27;45597;-58
2021/07/21 09:30:05;;;;;;;;;19.75;17.75;;;;;26.98;42.36;101618.31;5065944;27;45481;-59
2021/07/21 09:32:31;;;;;;;;;22.50;22.25;;;;;27.02;42.84;101621.69;5081520;27;45307;-57
2021/07/21 09:34:56;;;;;;;;;19.50;19.25;;;;;27.06;42.85;101617.72;5080135;27;48138;-57
2021/07/21 09:37:22;;;;;;;;;18.50;15.75;;;;;27.10;42.62;101620.13;5078020;27;45397;-57
2021/07/21 09:39:50;;;;;;;;;24.00;22.75;;;;;27.13;42.61;101617.16;5068587;27;45377;-57
2021/07/21 09:42:26;;;;;;;;;22.25;20.50;;;;;27.16;42.30;101616.91;5068646;27;45354;-57
2021/07/21 09:44:52;;;;;;;;;21.50;20.50;;;;;27.19;42.42;101615.81;5061039;28;47452;-57
2021/07/21 09:47:22;;;;;;;;;17.75;17.75;;;;;27.21;42.52;101617.44;5078064;28;45337;-55
2021/07/21 09:49:49;;;;;;;;;21.75;19.00;;;;;27.23;41.98;101615.47;5061801;28;45429;-57
2021/07/21 09:52:21;;;;;;;;;22.75;22.75;;;;;27.24;42.26;101610.88;5079756;27;45427;-57
2021/07/21 09:55:04;;;;;;;;;21.25;19.25;;;;;27.26;42.47;101617.06;5079440;27;48214;-56
2021/07/21 09:57:31;;;;;;;;;25.50;23.25;;;;;27.27;42.46;101608.78;5059880;28;45512;-57
2021/07/21 09:59:58;;;;;;;;;18.75;18.75;;;;;27.33;42.83;101604.72;5075637;28;45427;-57
2021/07/21 10:02:28;;;;;;;;;21.00;20.75;;;;;27.38;42.16;101609.78;5069594;27;45366;-57
2021/07/21 10:04:54;;;;;;;;;21.75;19.25;;;;;27.42;41.89;101614.00;5060831;27;47480;-57
2021/07/21 10:10:20;;;;;;;;;22.00;20.25;;;;;27.48;41.92;101608.97;5079251;27;45250;-57
2021/07/21 10:13:07;;;;;;;;;21.50;19.25;;;;;27.49;41.46;101604.38;5079372;27;45807;-57
2021/07/21 10:15:33;;;;;;;;;20.75;18.50;;;;;27.51;41.72;101607.84;5061195;28;47498;-57
2021/07/21 10:18:07;;;;;;;;;20.00;18.25;;;;;27.54;41.52;101604.88;5078654;27;45667;-57
2021/07/21 10:20:34;;;;;;;;;20.50;19.00;;;;;27.56;41.33;101609.19;5078974;27;45411;-58
2021/07/21 10:22:59;;;;;;;;;19.25;18.25;;;;;27.58;41.59;101602.78;5077643;27;45595;-57
2021/07/21 10:25:26;;;;;;;;;19.00;17.50;;;;;27.61;41.06;101599.81;5060482;28;47380;-58
2021/07/21 10:27:54;;;;;;;;;20.75;17.50;;;;;27.64;41.80;101605.91;5078871;27;45556;-58
2021/07/21 10:30:20;;;;;;;;;18.50;18.50;;;;;27.68;41.48;101601.06;5084678;27;45377;-57
2021/07/21 10:32:47;;;;;;;;;17.50;16.50;;;;;27.71;41.52;101611.75;5078386;27;45314;-57
2021/07/21 10:35:13;;;;;;;;;18.25;17.00;;;;;27.74;41.82;101608.78;5079055;27;47262;-57
2021/07/21 10:37:39;;;;;;;;;18.50;18.25;;;;;27.77;41.00;101614.84;5074687;27;45340;-58
2021/07/21 10:40:06;;;;;;;;;14.00;14.00;;;;;27.80;41.02;101614.59;5053157;28;45809;-57
2021/07/21 10:42:32;;;;;;;;;23.75;22.00;;;;;27.82;40.82;101611.75;5079569;27;45337;-58
2021/07/21 10:45:22;;;;;;;;;21.25;19.25;;;;;27.83;40.76;101606.19;5076586;28;47283;-57
2021/07/21 10:47:55;;;;;;;;;19.75;18.50;;;;;27.85;41.12;101598.75;5077298;27;46018;-57
2021/07/21 10:50:26;;;;;;;;;20.50;20.50;;;;;27.90;41.33;101611.16;5062466;27;45569;-58
2021/07/21 10:59:12;;;;;;;;;22.50;20.50;;;;;28.01;41.00;101600.22;5079134;27;45283;-57
2021/07/21 11:01:44;;;;;;;;;13.25;13.00;;;;;28.03;41.09;101606.44;5060523;27;45363;-57
2021/07/21 11:04:10;;;;;;;;;22.00;19.00;;;;;28.05;40.88;101590.78;5079338;27;45378;-58
2021/07/21 11:06:38;;;;;;;;;19.75;19.75;;;;;28.08;40.79;101605.09;5078099;27;48361;-57
2021/07/21 11:09:20;;;;;;;;;19.50;17.25;;;;;28.10;40.59;101594.91;5063745;28;45535;-57
2021/07/21 11:11:49;;;;;;;;;17.75;17.75;;;;;28.12;40.87;101598.38;5082066;27;45377;-57
2021/07/21 11:14:17;;;;;;;;;17.75;17.50;;;;;28.15;40.51;101589.06;5082580;27;45432;-57
2021/07/21 11:17:01;;;;;;;;;19.00;16.00;;;;;28.17;40.36;101597.97;5081487;27;47258;-58
2021/07/21 11:19:33;;;;;;;;;19.50;18.25;;;;;28.21;40.63;101594.03;5081627;27;45388;-57
2021/07/21 11:22:03;;;;;;;;;20.00;17.25;;;;;28.23;40.54;101594.75;5082023;28;45408;-57
2021/07/21 11:24:29;;;;;;;;;17.00;16.75;;;;;28.27;40.31;101581.75;5082504;27;45725;-56
2021/07/21 11:26:56;;;;;;;;;17.75;17.75;;;;;28.31;40.00;101586.81;5081862;27;45378;-57
2021/07/21 11:29:27;;;;;;;;;15.50;15.25;;;;;28.35;40.23;101585.59;5081826;27;46794;-59